Time;durP1;ratioP1;P1;durP2;ratioP2;P2;SDS_P1;SDS_P2;PMS_P1;PMS_P2;Temp;Humidity;BMP_temperature;BMP_pressure;BME280_temperature;BME280_humidity;BME280_pressure;Samples;Min_cycle;Max_cycle;Signal;HPM_P1;HPM_P2
2021/05/25 00:02:09;;;;;;;1.33;1.17;;;16.50;99.90;;;;;;5012646;28;20444;-69
2021/05/25 00:04:37;;;;;;;1.30;1.20;;;16.40;99.90;;;;;;5012924;28;20411;-67
2021/05/25 00:07:04;;;;;;;1.40;0.90;;;16.40;99.90;;;;;;5013100;28;20471;-68
2021/05/25 00:09:32;;;;;;;3.20;1.27;;;16.30;99.90;;;;;;5013630;28;20395;-69
2021/05/25 00:12:00;;;;;;;1.97;1.27;;;16.30;99.90;;;;;;5012866;28;20403;-68
2021/05/25 00:14:28;;;;;;;1.63;1.20;;;16.30;99.90;;;;;;5012664;28;20468;-68
2021/05/25 00:16:57;;;;;;;1.83;1.30;;;16.20;99.90;;;;;;5012598;28;20907;-68
2021/05/25 00:19:25;;;;;;;2.57;1.03;;;16.20;99.90;;;;;;4995278;28;20447;-69
2021/05/25 00:21:53;;;;;;;1.50;1.00;;;16.10;99.90;;;;;;5012582;28;20395;-69
2021/05/25 00:24:20;;;;;;;1.20;0.93;;;16.10;99.90;;;;;;5012404;28;20527;-69
2021/05/25 00:26:48;;;;;;;1.30;0.90;;;16.10;99.90;;;;;;5012484;28;20461;-67
2021/05/25 00:29:16;;;;;;;1.60;1.00;;;16.00;99.90;;;;;;5012718;28;20932;-68
2021/05/25 00:31:44;;;;;;;1.20;1.00;;;15.80;99.90;;;;;;5012450;28;20506;-68
2021/05/25 00:34:12;;;;;;;1.10;0.87;;;15.60;99.90;;;;;;5012710;28;20487;-69
2021/05/25 00:36:40;;;;;;;1.87;0.80;;;15.50;99.90;;;;;;5012835;28;20397;-68
2021/05/25 00:39:08;;;;;;;3.83;1.30;;;15.40;99.90;;;;;;5012244;28;20406;-69
2021/05/25 00:41:36;;;;;;;1.30;0.90;;;15.20;99.90;;;;;;4994515;28;20440;-68
2021/05/25 00:44:07;;;;;;;1.87;0.83;;;15.10;99.90;;;;;;5012319;28;20473;-68
2021/05/25 00:46:34;;;;;;;1.40;0.83;;;15.10;99.90;;;;;;5012390;28;20475;-68
2021/05/25 00:49:02;;;;;;;1.30;0.90;;;15.00;99.90;;;;;;5012437;28;20410;-69
2021/05/25 00:51:32;;;;;;;1.47;1.03;;;14.80;99.90;;;;;;5012033;28;20509;-68
2021/05/25 00:54:00;;;;;;;1.20;1.10;;;14.70;99.90;;;;;;5011954;28;20935;-68
2021/05/25 00:56:27;;;;;;;1.70;0.80;;;14.60;99.90;;;;;;5012253;28;20413;-68
2021/05/25 00:58:55;;;;;;;1.30;0.87;;;14.50;99.90;;;;;;5012074;28;20432;-68
2021/05/25 01:01:23;;;;;;;1.10;0.90;;;14.40;99.90;;;;;;5012104;28;20417;-68
2021/05/25 01:03:51;;;;;;;1.60;1.00;;;14.20;99.90;;;;;;5012156;28;20456;-68
2021/05/25 01:06:19;;;;;;;1.20;0.73;;;14.10;99.90;;;;;;5011967;28;20478;-68
2021/05/25 01:08:48;;;;;;;4.13;1.03;;;14.00;99.90;;;;;;5011836;28;20462;-68
2021/05/25 01:11:17;;;;;;;1.63;0.80;;;13.90;99.90;;;;;;5011813;28;20430;-68
2021/05/25 01:13:47;;;;;;;4.87;1.23;;;13.90;99.90;;;;;;5011492;28;20430;-68
2021/05/25 01:16:16;;;;;;;2.00;1.00;;;13.80;99.90;;;;;;5011144;28;20442;-68
2021/05/25 01:18:44;;;;;;;1.53;1.20;;;13.80;99.90;;;;;;5011853;28;20388;-68
2021/05/25 01:21:13;;;;;;;1.30;1.07;;;13.60;99.90;;;;;;5011714;28;20421;-68
2021/05/25 01:23:42;;;;;;;1.97;1.00;;;13.50;99.90;;;;;;5011273;28;20455;-68
2021/05/25 01:26:11;;;;;;;2.50;1.20;;;13.40;99.90;;;;;;5011422;28;20431;-68
2021/05/25 01:28:41;;;;;;;1.20;0.80;;;13.40;99.90;;;;;;5011582;28;20499;-68
2021/05/25 01:31:09;;;;;;;1.50;1.20;;;13.40;99.90;;;;;;5011770;28;20440;-68
2021/05/25 01:33:37;;;;;;;2.07;1.10;;;13.30;99.90;;;;;;5012121;28;20448;-68
2021/05/25 01:36:06;;;;;;;1.20;1.00;;;13.30;99.90;;;;;;5012308;28;20392;-69
2021/05/25 01:38:35;;;;;;;1.30;1.00;;;13.20;99.90;;;;;;5015873;28;20409;-69
2021/05/25 01:41:06;;;;;;;1.40;1.30;;;13.20;99.90;;;;;;5013795;28;20433;-69
2021/05/25 01:43:36;;;;;;;1.40;1.00;;;13.10;99.90;;;;;;4993934;28;20453;-70
2021/05/25 01:46:04;;;;;;;2.33;1.57;;;13.10;99.90;;;;;;5011747;28;20444;-68
2021/05/25 01:48:34;;;;;;;2.70;1.20;;;13.10;99.90;;;;;;4994945;28;20433;-68
2021/05/25 01:51:02;;;;;;;1.77;0.97;;;13.10;99.90;;;;;;4995151;28;20476;-69
2021/05/25 01:53:31;;;;;;;1.40;1.30;;;13.10;99.90;;;;;;4995751;28;20435;-67
2021/05/25 01:56:00;;;;;;;2.00;1.00;;;13.10;99.90;;;;;;4994897;28;21009;-69
2021/05/25 01:58:32;;;;;;;1.30;0.90;;;13.20;99.90;;;;;;5012662;28;20483;-67
2021/05/25 02:01:02;;;;;;;1.20;1.10;;;13.20;99.90;;;;;;4994668;28;20415;-68
2021/05/25 02:03:30;;;;;;;1.47;1.07;;;13.30;99.90;;;;;;4993749;28;20478;-68
2021/05/25 02:05:58;;;;;;;1.17;0.90;;;13.20;99.90;;;;;;5011310;28;20453;-67
2021/05/25 02:08:27;;;;;;;1.60;1.00;;;13.20;99.90;;;;;;5011129;28;20392;-68
2021/05/25 02:10:56;;;;;;;1.70;0.80;;;13.20;99.90;;;;;;5011472;28;20453;-69
2021/05/25 02:13:25;;;;;;;1.20;1.00;;;13.30;99.90;;;;;;5011408;28;20965;-67
2021/05/25 02:15:56;;;;;;;1.50;1.27;;;13.30;99.90;;;;;;5011570;28;20508;-68
2021/05/25 02:18:26;;;;;;;1.70;1.20;;;13.30;99.90;;;;;;5010943;28;20448;-70
2021/05/25 02:20:56;;;;;;;1.43;1.03;;;13.20;99.90;;;;;;5010934;28;20421;-67
2021/05/25 02:23:24;;;;;;;1.50;1.20;;;13.10;99.90;;;;;;5011191;28;20444;-67
2021/05/25 02:25:52;;;;;;;1.50;1.23;;;13.20;99.90;;;;;;5011961;28;20395;-69
2021/05/25 02:28:20;;;;;;;1.93;1.00;;;13.20;99.90;;;;;;5014865;28;20427;-67
2021/05/25 02:30:48;;;;;;;1.10;1.00;;;13.10;99.90;;;;;;5028251;23;20496;-65
2021/05/25 02:33:17;;;;;;;1.60;1.23;;;13.10;99.90;;;;;;5014509;28;20440;-66
2021/05/25 02:35:47;;;;;;;1.67;1.20;;;13.20;99.90;;;;;;5014135;28;20411;-65
2021/05/25 02:38:15;;;;;;;2.20;1.30;;;13.20;99.90;;;;;;5014560;28;20896;-65
2021/05/25 02:40:44;;;;;;;2.27;1.63;;;13.20;99.90;;;;;;5014008;28;20471;-66
2021/05/25 02:43:13;;;;;;;1.97;1.73;;;13.10;99.90;;;;;;4996566;28;20431;-65
2021/05/25 02:45:41;;;;;;;2.17;1.33;;;13.10;99.90;;;;;;5014055;28;20908;-67
2021/05/25 02:48:09;;;;;;;1.30;1.17;;;13.20;99.90;;;;;;5014208;28;20399;-66
2021/05/25 02:50:38;;;;;;;1.67;1.50;;;13.20;99.90;;;;;;5014297;28;20483;-66
2021/05/25 02:53:06;;;;;;;1.40;1.13;;;13.20;99.90;;;;;;5014550;28;20471;-66
2021/05/25 02:55:37;;;;;;;2.60;1.50;;;13.00;99.90;;;;;;5014408;28;20423;-67
2021/05/25 02:58:07;;;;;;;1.63;1.47;;;13.00;99.90;;;;;;4996363;28;20433;-67
2021/05/25 03:00:38;;;;;;;2.40;1.43;;;12.90;99.90;;;;;;4996268;28;20853;-65
2021/05/25 03:03:06;;;;;;;2.57;1.40;;;12.80;99.90;;;;;;5013828;28;20420;-65
2021/05/25 03:05:34;;;;;;;1.20;1.10;;;12.70;99.90;;;;;;5014007;28;20919;-66
2021/05/25 03:08:05;;;;;;;1.97;1.77;;;12.70;99.90;;;;;;5013807;28;20450;-65
2021/05/25 03:10:36;;;;;;;2.23;1.40;;;12.80;99.90;;;;;;4996240;28;20392;-67
2021/05/25 03:13:05;;;;;;;3.83;1.07;;;12.90;99.90;;;;;;5013527;28;20532;-65
2021/05/25 03:15:35;;;;;;;2.40;1.73;;;13.10;99.90;;;;;;5013542;28;20396;-67
2021/05/25 03:18:04;;;;;;;1.67;1.20;;;13.10;99.90;;;;;;5013499;28;20396;-66
2021/05/25 03:20:33;;;;;;;1.83;1.73;;;12.90;99.90;;;;;;4995771;28;20433;-65
2021/05/25 03:23:01;;;;;;;1.33;1.17;;;12.80;99.90;;;;;;5013100;28;20415;-65
2021/05/25 03:25:30;;;;;;;2.43;2.03;;;12.80;99.90;;;;;;5013423;28;21301;-65
2021/05/25 03:27:57;;;;;;;3.27;1.60;;;12.80;99.90;;;;;;5014157;28;20438;-66
2021/05/25 03:30:27;;;;;;;1.77;1.43;;;12.80;99.90;;;;;;5013269;28;20387;-66
2021/05/25 03:32:56;;;;;;;1.50;1.10;;;12.90;99.90;;;;;;5012904;28;20453;-66
2021/05/25 03:35:24;;;;;;;2.50;1.50;;;12.90;99.90;;;;;;5013430;28;20392;-66
2021/05/25 03:37:53;;;;;;;2.37;1.80;;;12.90;99.90;;;;;;5012392;28;20402;-66
2021/05/25 03:40:21;;;;;;;2.33;1.87;;;12.90;99.90;;;;;;5013228;28;20417;-66
2021/05/25 03:42:52;;;;;;;2.67;1.80;;;13.00;99.90;;;;;;5013262;28;20437;-66
2021/05/25 03:45:20;;;;;;;1.20;1.10;;;12.90;99.90;;;;;;5013365;28;20454;-66
2021/05/25 03:47:48;;;;;;;7.40;2.37;;;12.90;99.90;;;;;;5013704;28;20448;-66
2021/05/25 03:50:17;;;;;;;2.53;2.33;;;12.80;99.90;;;;;;5014872;28;20501;-66
2021/05/25 03:52:47;;;;;;;1.70;1.60;;;12.90;99.90;;;;;;5014106;28;20460;-66
2021/05/25 03:55:22;;;;;;;3.50;1.50;;;13.00;99.90;;;;;;5016109;28;20425;-66
2021/05/25 04:00:38;;;;;;;1.63;1.50;;;12.90;99.90;;;;;;5016021;28;20467;-66
2021/05/25 04:03:05;;;;;;;1.90;1.67;;;12.80;99.90;;;;;;5015176;28;20445;-66
2021/05/25 04:05:33;;;;;;;1.60;1.50;;;12.80;99.90;;;;;;5015583;28;20423;-66
2021/05/25 04:08:01;;;;;;;2.10;1.83;;;12.90;99.90;;;;;;5014552;28;20468;-66
2021/05/25 04:10:29;;;;;;;2.90;1.10;;;13.00;99.90;;;;;;5012848;28;20844;-66
2021/05/25 04:12:58;;;;;;;4.40;2.90;;;13.10;99.90;;;;;;5012409;28;20449;-66
2021/05/25 04:15:26;;;;;;;3.13;1.90;;;13.20;99.90;;;;;;5012561;28;20376;-66
2021/05/25 04:17:54;;;;;;;3.80;2.60;;;13.40;99.90;;;;;;5012764;28;20746;-66
2021/05/25 04:20:23;;;;;;;3.17;2.00;;;13.50;99.90;;;;;;5012220;28;20460;-66
2021/05/25 04:22:56;;;;;;;4.60;2.87;;;13.50;99.90;;;;;;5012144;28;20521;-66
2021/05/25 04:25:24;;;;;;;2.63;2.17;;;13.60;99.90;;;;;;5012403;28;20421;-66
2021/05/25 04:27:52;;;;;;;2.70;2.17;;;13.70;99.90;;;;;;5012226;28;20436;-67
2021/05/25 04:30:21;;;;;;;4.67;2.17;;;13.60;99.90;;;;;;5012353;28;20400;-66
2021/05/25 04:32:50;;;;;;;2.60;2.40;;;13.70;99.90;;;;;;4994586;28;20978;-67
2021/05/25 04:35:18;;;;;;;2.27;2.07;;;13.80;99.90;;;;;;5012276;28;20415;-66
2021/05/25 04:37:46;;;;;;;4.63;2.23;;;13.80;99.90;;;;;;5012437;28;20431;-66
2021/05/25 04:40:15;;;;;;;5.83;2.70;;;13.80;99.90;;;;;;5012365;28;20432;-66
2021/05/25 04:42:43;;;;;;;3.10;1.50;;;13.80;99.90;;;;;;5012587;28;20430;-66
2021/05/25 04:45:12;;;;;;;3.10;1.37;;;13.70;99.90;;;;;;5012449;28;20407;-66
2021/05/25 04:47:40;;;;;;;2.30;2.10;;;13.60;99.90;;;;;;5012283;28;20515;-67
2021/05/25 04:50:10;;;;;;;8.93;2.50;;;13.50;99.90;;;;;;5012027;28;20421;-66
2021/05/25 04:52:38;;;;;;;2.10;1.90;;;13.40;99.90;;;;;;5012378;28;20441;-66
2021/05/25 04:55:09;;;;;;;3.93;2.43;;;13.40;99.90;;;;;;5012095;28;20425;-67
2021/05/25 04:57:37;;;;;;;2.40;2.07;;;13.40;99.90;;;;;;5012350;28;20512;-67
2021/05/25 05:00:06;;;;;;;1.47;1.33;;;13.40;99.90;;;;;;5012259;28;20403;-65
2021/05/25 05:02:34;;;;;;;3.37;1.70;;;13.50;99.90;;;;;;5012062;28;20449;-67
2021/05/25 05:05:05;;;;;;;2.30;1.40;;;13.60;99.90;;;;;;5012266;28;20883;-66
2021/05/25 05:07:33;;;;;;;1.60;1.30;;;13.70;99.90;;;;;;5011910;28;20449;-66
2021/05/25 05:10:01;;;;;;;1.83;1.40;;;13.90;99.90;;;;;;5011778;28;20417;-67
2021/05/25 05:12:29;;;;;;;1.33;1.23;;;14.10;99.90;;;;;;5011629;28;20477;-66
2021/05/25 05:14:57;;;;;;;1.87;1.40;;;14.20;99.90;;;;;;5012038;28;20532;-66
2021/05/25 05:17:27;;;;;;;2.03;1.40;;;14.30;99.90;;;;;;5011656;28;20384;-67
2021/05/25 05:19:55;;;;;;;2.17;1.23;;;14.30;99.90;;;;;;5012188;28;20916;-66
2021/05/25 05:22:23;;;;;;;2.13;1.47;;;14.30;99.90;;;;;;5011329;28;20427;-66
2021/05/25 05:24:51;;;;;;;1.30;1.17;;;14.10;99.90;;;;;;5011638;28;20977;-66
2021/05/25 05:27:19;;;;;;;0.90;0.77;;;14.00;99.90;;;;;;5011741;28;20542;-66
2021/05/25 05:29:47;;;;;;;1.40;1.10;;;13.70;99.90;;;;;;5011498;28;20409;-66
2021/05/25 05:32:15;;;;;;;1.83;1.40;;;13.60;99.90;;;;;;5011200;28;20418;-67
2021/05/25 05:34:43;;;;;;;2.20;1.23;;;13.40;99.90;;;;;;5011411;28;20425;-67
2021/05/25 05:37:11;;;;;;;2.80;1.27;;;13.30;99.90;;;;;;5011839;28;20415;-66
2021/05/25 05:39:39;;;;;;;1.47;1.37;;;13.40;99.90;;;;;;5011257;28;20416;-67
2021/05/25 05:42:07;;;;;;;2.63;1.30;;;13.40;99.90;;;;;;5011717;28;20752;-67
2021/05/25 05:44:35;;;;;;;1.50;0.90;;;13.40;99.90;;;;;;5011686;28;20881;-67
2021/05/25 05:47:03;;;;;;;6.40;1.30;;;13.50;99.90;;;;;;5011701;28;20459;-67
2021/05/25 05:49:30;;;;;;;3.20;1.53;;;13.50;99.90;;;;;;5011471;28;20465;-67
2021/05/25 05:51:58;;;;;;;1.80;1.07;;;13.30;99.90;;;;;;5011168;28;20431;-66
2021/05/25 05:54:26;;;;;;;1.33;1.00;;;13.20;99.90;;;;;;5011020;28;20445;-67
2021/05/25 05:56:54;;;;;;;3.03;0.90;;;13.30;99.90;;;;;;5011575;28;20409;-67
2021/05/25 05:59:22;;;;;;;1.77;0.97;;;13.30;99.90;;;;;;5011715;28;20455;-66
2021/05/25 06:01:49;;;;;;;1.17;0.87;;;13.20;99.90;;;;;;5013582;28;20429;-65
2021/05/25 06:04:17;;;;;;;1.43;0.77;;;13.40;99.90;;;;;;5015389;28;20449;-66
2021/05/25 06:06:48;;;;;;;1.27;0.90;;;13.40;99.90;;;;;;5015486;28;20384;-66
2021/05/25 06:09:15;;;;;;;1.27;0.97;;;13.40;99.90;;;;;;5015512;28;20405;-66
2021/05/25 06:11:51;;;;;;;1.60;1.00;;;13.30;99.90;;;;;;5014980;28;20986;-66
2021/05/25 06:14:24;;;;;;;1.93;1.20;;;13.10;99.90;;;;;;5014991;28;20415;-66
2021/05/25 06:16:52;;;;;;;1.00;0.70;;;13.00;99.90;;;;;;5015326;28;20407;-67
2021/05/25 06:19:19;;;;;;;2.50;1.30;;;13.00;99.90;;;;;;5015057;28;20396;-66
2021/05/25 06:21:47;;;;;;;1.13;0.80;;;12.90;99.90;;;;;;5015147;28;20404;-67
2021/05/25 06:24:15;;;;;;;1.77;1.30;;;12.90;99.90;;;;;;5015588;28;20478;-67
2021/05/25 06:26:43;;;;;;;1.67;1.10;;;12.80;99.90;;;;;;5014779;28;20399;-67
2021/05/25 06:29:11;;;;;;;1.03;0.80;;;12.80;99.90;;;;;;5015034;28;20472;-66
2021/05/25 06:31:40;;;;;;;1.30;1.03;;;12.80;99.90;;;;;;5015142;28;20512;-66
2021/05/25 06:34:07;;;;;;;4.70;1.10;;;12.90;99.90;;;;;;5016118;28;20424;-68
2021/05/25 06:36:35;;;;;;;1.03;0.80;;;13.10;99.90;;;;;;5015472;28;20423;-67
2021/05/25 06:39:05;;;;;;;1.30;0.90;;;13.10;99.90;;;;;;5015747;28;20861;-68
2021/05/25 06:41:33;;;;;;;1.10;0.93;;;13.20;99.90;;;;;;5014246;28;20420;-68
2021/05/25 06:44:01;;;;;;;1.87;1.27;;;13.30;99.90;;;;;;5014183;28;20798;-67
2021/05/25 06:46:28;;;;;;;1.27;1.10;;;13.50;99.90;;;;;;5014465;28;20404;-67
2021/05/25 06:48:57;;;;;;;0.97;0.70;;;13.70;99.90;;;;;;5014369;28;20433;-67
2021/05/25 06:51:26;;;;;;;1.53;1.00;;;13.70;99.90;;;;;;4997687;28;20486;-67
2021/05/25 06:53:54;;;;;;;1.97;1.00;;;13.70;99.90;;;;;;5015802;28;20446;-67
2021/05/25 06:56:21;;;;;;;2.20;1.10;;;13.60;99.90;;;;;;4999199;28;20546;-67
2021/05/25 06:58:49;;;;;;;1.50;0.70;;;13.60;99.90;;;;;;5015422;28;20383;-66
2021/05/25 07:01:17;;;;;;;2.03;1.20;;;13.60;99.90;;;;;;5014563;28;20487;-66
2021/05/25 07:03:44;;;;;;;2.30;1.30;;;13.60;99.90;;;;;;5016155;28;20481;-66
2021/05/25 07:06:13;;;;;;;3.00;1.70;;;13.80;99.90;;;;;;5014570;28;20406;-67
2021/05/25 07:08:41;;;;;;;1.37;0.80;;;13.90;99.90;;;;;;5014061;28;20443;-68
2021/05/25 07:11:09;;;;;;;3.10;1.70;;;14.10;99.90;;;;;;5013947;28;20417;-68
2021/05/25 07:13:37;;;;;;;2.33;1.47;;;14.20;99.90;;;;;;5012653;28;20452;-68
2021/05/25 07:16:06;;;;;;;2.27;1.37;;;14.10;99.90;;;;;;5013650;28;20429;-67
2021/05/25 07:18:33;;;;;;;1.83;1.20;;;14.10;99.90;;;;;;5013827;28;20804;-66
2021/05/25 07:21:01;;;;;;;1.47;0.80;;;14.30;99.90;;;;;;5013454;28;20421;-67
2021/05/25 07:23:33;;;;;;;1.50;1.13;;;14.40;99.90;;;;;;5013721;28;20437;-67
2021/05/25 07:26:01;;;;;;;3.67;1.80;;;14.30;99.90;;;;;;5013499;28;20734;-68
2021/05/25 07:28:28;;;;;;;1.77;0.97;;;14.20;99.90;;;;;;5013506;28;20443;-68
2021/05/25 07:31:08;;;;;;;1.43;0.80;;;14.20;99.90;;;;;;5010431;28;20436;-82
2021/05/25 07:33:36;;;;;;;1.03;0.60;;;14.20;99.90;;;;;;5011753;28;20431;-81
2021/05/25 07:36:05;;;;;;;2.50;0.90;;;14.20;99.90;;;;;;5010081;28;20409;-82
2021/05/25 07:38:34;;;;;;;2.30;0.90;;;14.30;99.90;;;;;;5008664;28;20428;-81
2021/05/25 07:41:01;;;;;;;1.20;0.73;;;14.30;99.90;;;;;;5004575;28;20424;-83
2021/05/25 07:43:30;;;;;;;1.10;0.70;;;14.30;99.90;;;;;;5003551;28;20393;-80
2021/05/25 07:46:00;;;;;;;1.97;0.80;;;14.30;99.90;;;;;;5003806;28;20402;-81
2021/05/25 07:48:27;;;;;;;1.63;0.80;;;14.00;99.90;;;;;;5002908;28;20469;-80
2021/05/25 07:50:55;;;;;;;1.47;0.70;;;13.80;99.90;;;;;;5003307;28;20421;-81
2021/05/25 07:53:23;;;;;;;0.90;0.60;;;13.70;99.90;;;;;;5004255;28;20571;-80
2021/05/25 07:55:52;;;;;;;1.33;0.90;;;13.80;99.90;;;;;;5012994;28;20475;-81
2021/05/25 07:58:19;;;;;;;0.90;0.70;;;13.90;99.90;;;;;;5017787;28;20392;-80
2021/05/25 08:00:47;;;;;;;0.90;0.70;;;14.00;99.90;;;;;;5018805;28;20431;-79
2021/05/25 08:03:16;;;;;;;1.67;1.10;;;14.10;99.90;;;;;;5018045;28;20414;-81
2021/05/25 08:05:44;;;;;;;1.30;0.70;;;14.00;99.90;;;;;;5017234;28;20405;-81
2021/05/25 08:08:12;;;;;;;1.43;0.60;;;14.10;99.90;;;;;;5003842;28;20429;-82
2021/05/25 08:10:39;;;;;;;1.43;1.07;;;14.30;99.90;;;;;;5000544;28;20468;-80
2021/05/25 08:13:08;;;;;;;1.17;0.83;;;14.50;99.90;;;;;;5000520;28;20430;-82
2021/05/25 08:15:38;;;;;;;1.50;0.70;;;14.60;99.90;;;;;;4999660;28;20413;-79
2021/05/25 08:18:12;;;;;;;1.00;0.80;;;14.20;99.90;;;;;;5008766;28;20417;-80
2021/05/25 08:20:40;;;;;;;1.03;0.77;;;14.30;99.90;;;;;;5016445;28;20492;-80
2021/05/25 08:23:25;;;;;;;1.20;0.70;;;14.40;99.90;;;;;;5015721;28;20413;-84
2021/05/25 08:25:53;;;;;;;1.13;1.03;;;14.50;99.90;;;;;;5003973;28;20426;-83
2021/05/25 08:28:22;;;;;;;1.17;0.80;;;14.80;99.90;;;;;;5001109;28;20449;-82
2021/05/25 08:30:50;;;;;;;1.53;0.70;;;15.00;99.90;;;;;;5029020;23;20485;-68
2021/05/25 08:33:18;;;;;;;1.57;1.20;;;15.30;99.90;;;;;;5031979;28;20506;-67
2021/05/25 08:35:48;;;;;;;0.90;0.73;;;15.20;99.90;;;;;;5031996;28;20486;-68
2021/05/25 08:38:20;;;;;;;1.20;0.80;;;15.10;99.90;;;;;;5031876;28;20375;-68
2021/05/25 08:40:50;;;;;;;2.00;0.70;;;14.90;99.90;;;;;;5032279;28;20387;-67
2021/05/25 08:43:21;;;;;;;1.50;0.93;;;14.80;99.90;;;;;;5031860;28;20411;-66
2021/05/25 08:45:49;;;;;;;1.30;0.97;;;14.60;99.90;;;;;;5031870;28;20445;-66
2021/05/25 08:48:19;;;;;;;1.10;0.70;;;14.70;99.90;;;;;;5032085;28;21035;-66
2021/05/25 08:50:52;;;;;;;3.37;1.27;;;14.70;99.90;;;;;;5031833;28;20403;-67
2021/05/25 08:53:20;;;;;;;1.10;0.90;;;14.80;99.90;;;;;;5031700;28;20440;-66
2021/05/25 08:55:49;;;;;;;1.67;0.83;;;14.80;99.90;;;;;;5031527;28;20534;-66
2021/05/25 08:58:17;;;;;;;1.00;0.77;;;15.10;99.90;;;;;;5031670;28;20893;-67
2021/05/25 09:00:46;;;;;;;2.27;0.90;;;15.80;99.90;;;;;;5030266;28;20984;-67
2021/05/25 09:03:16;;;;;;;1.93;1.00;;;16.20;99.90;;;;;;5031569;28;20451;-67
2021/05/25 09:05:49;;;;;;;2.53;1.50;;;16.50;99.90;;;;;;5030261;28;20414;-68
2021/05/25 09:08:17;;;;;;;0.90;0.70;;;16.40;99.90;;;;;;5029970;28;20834;-66
2021/05/25 09:10:46;;;;;;;0.90;0.60;;;16.10;99.90;;;;;;5031176;28;20530;-68
2021/05/25 09:13:16;;;;;;;3.17;1.17;;;15.80;99.90;;;;;;5031231;28;20480;-67
2021/05/25 09:15:46;;;;;;;6.53;1.23;;;15.70;99.90;;;;;;5031295;28;20414;-67
2021/05/25 09:18:15;;;;;;;1.13;0.80;;;15.90;99.90;;;;;;5030030;28;20936;-67
2021/05/25 09:20:46;;;;;;;1.67;0.80;;;16.40;99.90;;;;;;5031076;28;20414;-68
2021/05/25 09:23:16;;;;;;;1.27;0.63;;;16.70;99.90;;;;;;5031093;28;20425;-67
2021/05/25 09:25:51;;;;;;;1.00;0.73;;;16.70;99.90;;;;;;5029944;28;20447;-68
2021/05/25 09:28:21;;;;;;;1.27;1.03;;;16.40;99.90;;;;;;5031088;28;20492;-67
2021/05/25 09:30:50;;;;;;;1.17;0.90;;;16.00;99.90;;;;;;5031198;28;20497;-67
2021/05/25 09:33:20;;;;;;;2.17;0.97;;;16.10;99.90;;;;;;5031139;28;20463;-67
2021/05/25 09:35:49;;;;;;;1.20;0.80;;;16.40;99.90;;;;;;5030257;28;20436;-67
2021/05/25 09:38:19;;;;;;;1.40;0.80;;;17.10;99.90;;;;;;5031584;28;20486;-66
2021/05/25 09:40:48;;;;;;;1.30;0.93;;;17.60;99.90;;;;;;5030870;28;20772;-67
2021/05/25 09:43:19;;;;;;;1.30;0.80;;;18.00;99.90;;;;;;5030953;28;20464;-67
2021/05/25 09:46:02;;;;;;;1.20;0.70;;;18.20;99.90;;;;;;5029501;28;20422;-68
2021/05/25 09:48:32;;;;;;;2.30;0.77;;;18.10;99.90;;;;;;5030827;28;20426;-67
2021/05/25 09:51:00;;;;;;;1.20;0.80;;;17.90;99.90;;;;;;5030431;28;20436;-67
2021/05/25 09:53:30;;;;;;;1.97;1.07;;;18.00;99.90;;;;;;5030751;28;20509;-67
2021/05/25 09:56:00;;;;;;;1.20;0.67;;;18.20;99.90;;;;;;5030736;28;20415;-67
2021/05/25 09:58:38;;;;;;;1.17;0.70;;;18.10;99.90;;;;;;5030795;28;20408;-68
2021/05/25 10:01:08;;;;;;;1.53;1.00;;;17.70;99.90;;;;;;5030497;28;20779;-66
2021/05/25 10:03:47;;;;;;;0.90;0.60;;;16.90;99.90;;;;;;5030450;28;20423;-67
2021/05/25 10:06:16;;;;;;;1.00;0.80;;;16.40;99.90;;;;;;5030766;28;20423;-67
2021/05/25 10:08:45;;;;;;;1.10;0.70;;;15.90;99.90;;;;;;5030589;28;20438;-68
2021/05/25 10:11:16;;;;;;;1.43;0.90;;;15.10;99.90;;;;;;5030823;28;20408;-66
2021/05/25 10:13:45;;;;;;;1.57;0.90;;;14.60;99.90;;;;;;5029090;28;20451;-67
2021/05/25 10:16:23;;;;;;;3.37;0.80;;;13.80;99.90;;;;;;5030947;28;20426;-67
2021/05/25 10:19:02;;;;;;;1.23;0.70;;;13.30;99.90;;;;;;5031433;28;20487;-67
2021/05/25 10:21:30;;;;;;;1.13;0.60;;;12.90;99.90;;;;;;5031323;28;20473;-68
2021/05/25 10:24:01;;;;;;;1.27;0.70;;;12.60;99.90;;;;;;5031816;28;20494;-67
2021/05/25 10:26:30;;;;;;;1.47;0.80;;;12.50;99.90;;;;;;5031116;28;20424;-67
2021/05/25 10:29:02;;;;;;;0.87;0.60;;;12.50;99.90;;;;;;5030656;28;20555;-68
2021/05/25 10:31:33;;;;;;;0.90;0.60;;;12.50;99.90;;;;;;5030666;28;20526;-68
2021/05/25 10:34:17;;;;;;;1.37;0.67;;;12.50;99.90;;;;;;5030418;28;20455;-67
2021/05/25 10:36:48;;;;;;;1.00;0.67;;;12.50;99.90;;;;;;5030592;28;20423;-68
2021/05/25 10:39:37;;;;;;;1.47;0.87;;;12.50;99.90;;;;;;5030454;28;20450;-68
2021/05/25 10:42:37;;;;;;;1.00;0.70;;;12.30;99.90;;;;;;5030599;28;20474;-67
2021/05/25 10:45:26;;;;;;;1.00;0.73;;;12.00;99.90;;;;;;5030645;28;20403;-66
2021/05/25 10:48:00;;;;;;;1.60;1.10;;;12.20;99.90;;;;;;5033123;28;20458;-66
2021/05/25 10:50:32;;;;;;;2.13;1.00;;;12.30;99.90;;;;;;5034739;28;20467;-67
2021/05/25 10:53:26;;;;;;;1.10;0.77;;;12.20;99.90;;;;;;5035501;28;20418;-67
2021/05/25 10:55:56;;;;;;;1.20;0.80;;;11.80;99.90;;;;;;5022914;28;20543;-66
2021/05/25 10:58:29;;;;;;;1.37;0.70;;;11.80;99.90;;;;;;5036381;28;20813;-66
2021/05/25 11:00:58;;;;;;;1.13;1.00;;;12.00;99.90;;;;;;5035422;28;20441;-65
2021/05/25 11:03:27;;;;;;;1.10;0.73;;;12.30;99.90;;;;;;5035007;28;20425;-65
2021/05/25 11:05:56;;;;;;;1.40;0.63;;;12.70;99.90;;;;;;5035060;28;20503;-66
2021/05/25 11:08:40;;;;;;;1.73;0.97;;;13.20;99.90;;;;;;5034773;28;20427;-65
2021/05/25 11:11:30;;;;;;;1.50;0.90;;;13.80;99.90;;;;;;5034413;28;20394;-67
2021/05/25 11:13:58;;;;;;;1.17;0.73;;;14.50;99.90;;;;;;5034022;28;20726;-67
2021/05/25 11:16:31;;;;;;;1.43;1.10;;;15.10;99.90;;;;;;5034678;28;20395;-67
2021/05/25 11:19:34;;;;;;;0.90;0.60;;;15.20;99.90;;;;;;5034454;28;20402;-67
2021/05/25 11:24:58;;;;;;;1.83;0.70;;;15.00;1.00;;;;;;5033569;28;20471;-67
2021/05/25 11:27:33;;;;;;;1.20;0.83;;;15.20;1.00;;;;;;5033740;28;20398;-68
2021/05/25 11:30:05;;;;;;;1.00;0.70;;;15.50;1.00;;;;;;5033781;28;20469;-67
2021/05/25 11:32:39;;;;;;;1.43;0.80;;;15.60;99.90;;;;;;5033330;28;20866;-67
2021/05/25 11:35:09;;;;;;;1.40;0.90;;;15.70;1.00;;;;;;5033596;28;20394;-67
2021/05/25 11:37:39;;;;;;;1.00;0.80;;;15.90;95.60;;;;;;5033558;28;20399;-67
2021/05/25 11:40:12;;;;;;;2.80;0.80;;;15.90;99.90;;;;;;5033278;28;20841;-67
2021/05/25 11:42:42;;;;;;;1.13;0.70;;;15.90;1.00;;;;;;5033181;28;21011;-67
2021/05/25 11:45:11;;;;;;;3.77;1.43;;;15.80;1.00;;;;;;5033267;28;20403;-66
2021/05/25 11:47:39;;;;;;;1.03;0.90;;;16.00;1.00;;;;;;5032504;28;20419;-66
2021/05/25 11:50:11;;;;;;;1.37;0.90;;;16.20;99.90;;;;;;5032643;28;20847;-67
2021/05/25 11:52:59;;;;;;;1.60;1.27;;;16.50;99.90;;;;;;5032407;28;20432;-66
2021/05/25 11:55:27;;;;;;;3.97;1.00;;;16.30;99.90;;;;;;5032912;28;20408;-67
2021/05/25 11:57:55;;;;;;;0.93;0.77;;;16.30;99.90;;;;;;5033073;28;20468;-67
2021/05/25 12:00:25;;;;;;;0.90;0.70;;;16.10;99.90;;;;;;5032560;28;20390;-66
2021/05/25 12:02:54;;;;;;;4.17;1.20;;;15.50;99.90;;;;;;5032525;28;20494;-68
2021/05/25 12:05:24;;;;;;;1.90;1.20;;;15.10;1.00;;;;;;5032703;28;20861;-65
2021/05/25 12:07:54;;;;;;;0.90;0.80;;;14.70;99.90;;;;;;5032493;28;20390;-66
2021/05/25 12:10:23;;;;;;;2.13;0.87;;;14.40;99.90;;;;;;5032382;28;20459;-67
2021/05/25 12:12:52;;;;;;;1.33;0.87;;;14.10;99.90;;;;;;5032232;28;20517;-67
2021/05/25 12:15:21;;;;;;;2.67;0.87;;;14.20;99.90;;;;;;5032441;28;20391;-67
2021/05/25 12:17:51;;;;;;;1.57;0.90;;;14.70;99.90;;;;;;5031162;28;20415;-66
2021/05/25 12:20:20;;;;;;;2.23;1.20;;;15.40;99.90;;;;;;5032961;28;20874;-66
2021/05/25 12:22:52;;;;;;;1.50;0.90;;;16.00;99.90;;;;;;5032813;28;20555;-66
2021/05/25 12:25:30;;;;;;;1.17;1.00;;;16.10;99.90;;;;;;5032602;28;20418;-67
2021/05/25 12:28:08;;;;;;;2.60;1.27;;;16.30;99.90;;;;;;5032466;28;20383;-67
2021/05/25 12:30:42;;;;;;;2.40;1.27;;;16.50;99.90;;;;;;5031046;28;20460;-67
2021/05/25 12:33:17;;;;;;;1.37;1.07;;;16.70;99.90;;;;;;5032635;28;20439;-66
2021/05/25 12:35:46;;;;;;;2.60;1.00;;;16.60;99.90;;;;;;5032644;28;20450;-66
2021/05/25 12:38:17;;;;;;;1.20;0.83;;;16.80;99.90;;;;;;5032317;28;20395;-67
2021/05/25 12:40:47;;;;;;;1.23;0.80;;;17.00;99.90;;;;;;5032529;28;20512;-67
2021/05/25 12:43:20;;;;;;;2.87;1.50;;;17.20;99.90;;;;;;5032538;28;20444;-68
2021/05/25 12:45:49;;;;;;;1.43;1.23;;;17.50;99.90;;;;;;5032593;28;20909;-67
2021/05/25 12:48:18;;;;;;;1.97;1.37;;;17.40;99.90;;;;;;5032249;28;20424;-67
2021/05/25 12:50:48;;;;;;;1.30;1.10;;;17.70;99.90;;;;;;5032440;28;21083;-67
2021/05/25 12:53:17;;;;;;;1.93;1.47;;;18.10;99.90;;;;;;5032376;28;20443;-67
2021/05/25 12:56:00;;;;;;;1.63;0.80;;;18.40;99.90;;;;;;5032984;28;20482;-68
2021/05/25 12:58:39;;;;;;;2.30;0.83;;;18.40;99.90;;;;;;5034451;28;20391;-67
2021/05/25 13:01:28;;;;;;;1.73;0.73;;;18.40;99.90;;;;;;5037019;28;20416;-67
2021/05/25 13:04:20;;;;;;;1.20;0.80;;;18.10;99.90;;;;;;5036555;28;20418;-67
2021/05/25 13:06:53;;;;;;;0.90;0.60;;;17.80;99.90;;;;;;5035829;28;20446;-68
2021/05/25 13:09:24;;;;;;;1.07;0.80;;;17.60;99.90;;;;;;5036830;28;20447;-67